Time;durP1;ratioP1;P1;durP2;ratioP2;P2;SDS_P1;SDS_P2;PMS_P1;PMS_P2;Temp;Humidity;BMP_temperature;BMP_pressure;BME280_temperature;BME280_humidity;BME280_pressure;Samples;Min_cycle;Max_cycle;Signal;HPM_P1;HPM_P2
2024/03/03 00:01:01;;;;;;;5.32;0.90;;;;;;;9.24;100.00;100139.97;5078292;28;20055;-68
2024/03/03 00:03:26;;;;;;;5.43;1.13;;;;;;;9.24;100.00;100135.59;5091610;28;20028;-68
2024/03/03 00:05:52;;;;;;;3.13;1.15;;;;;;;9.23;100.00;100133.94;5090839;28;20040;-68
2024/03/03 00:08:18;;;;;;;4.63;1.05;;;;;;;9.24;100.00;100142.56;5089646;28;20499;-68
2024/03/03 00:10:43;;;;;;;3.65;1.45;;;;;;;9.23;100.00;100138.31;5092534;28;20028;-68
2024/03/03 00:13:09;;;;;;;3.92;1.00;;;;;;;9.24;100.00;100134.78;5088195;28;20028;-68
2024/03/03 00:15:34;;;;;;;2.47;1.15;;;;;;;9.18;100.00;100136.16;5092484;28;20028;-68
2024/03/03 00:18:00;;;;;;;2.35;0.95;;;;;;;9.16;100.00;100132.06;5091305;28;20028;-68
2024/03/03 00:20:25;;;;;;;3.22;1.42;;;;;;;9.17;100.00;100144.91;5090763;28;20546;-68
2024/03/03 00:22:50;;;;;;;2.35;1.15;;;;;;;9.18;100.00;100136.16;5072026;28;20571;-69
2024/03/03 00:25:16;;;;;;;2.40;1.40;;;;;;;9.20;100.00;100139.44;5087732;28;20036;-68
2024/03/03 00:27:42;;;;;;;2.40;1.20;;;;;;;9.20;100.00;100141.22;5091785;28;20489;-68
2024/03/03 00:30:08;;;;;;;6.22;1.42;;;;;;;9.18;100.00;100138.75;5089201;28;20493;-69
2024/03/03 00:32:33;;;;;;;11.20;1.55;;;;;;;9.17;100.00;100144.91;5090830;28;20097;-68
2024/03/03 00:34:58;;;;;;;4.40;1.50;;;;;;;9.19;100.00;100147.38;5090539;28;20040;-68
2024/03/03 00:37:24;;;;;;;4.25;1.50;;;;;;;9.19;100.00;100140.41;5093201;28;20028;-68
2024/03/03 00:39:49;;;;;;;2.63;1.00;;;;;;;9.21;100.00;100145.44;5091958;28;20084;-68
2024/03/03 00:42:15;;;;;;;2.35;0.85;;;;;;;9.18;100.00;100143.13;5089216;28;20024;-68
2024/03/03 00:44:40;;;;;;;2.45;1.15;;;;;;;9.16;100.00;100140.69;5089916;28;20028;-68
2024/03/03 00:47:05;;;;;;;2.70;0.73;;;;;;;9.13;100.00;100142.75;5090716;28;20035;-68
2024/03/03 00:49:31;;;;;;;1.27;0.80;;;;;;;9.16;100.00;100143.28;5087710;28;20757;-68
2024/03/03 00:51:56;;;;;;;2.15;0.82;;;;;;;9.20;100.00;100134.22;5089560;28;20040;-68
2024/03/03 00:54:22;;;;;;;3.45;1.10;;;;;;;9.19;100.00;100136.97;5089302;28;20032;-68
2024/03/03 00:56:48;;;;;;;2.42;1.08;;;;;;;9.17;100.00;100137.13;5089886;28;20055;-68
2024/03/03 00:59:14;;;;;;;5.47;0.55;;;;;;;9.20;100.00;100133.41;5087689;28;20427;-68
2024/03/03 01:01:39;;;;;;;2.47;1.20;;;;;;;9.21;100.00;100129.84;5090313;28;20024;-68
2024/03/03 01:04:05;;;;;;;3.22;1.10;;;;;;;9.22;100.00;100129.72;5090327;28;20338;-68
2024/03/03 01:06:30;;;;;;;1.98;0.90;;;;;;;9.21;100.00;100125.47;5088406;28;20039;-68
2024/03/03 01:08:56;;;;;;;3.25;1.08;;;;;;;9.24;100.00;100124.38;5090854;28;20442;-68
2024/03/03 01:11:22;;;;;;;2.05;1.23;;;;;;;9.26;100.00;100117.25;5090148;28;20424;-68
2024/03/03 01:13:47;;;;;;;4.25;1.05;;;;;;;9.21;100.00;100119.47;5090221;28;20036;-68
2024/03/03 01:16:13;;;;;;;2.72;1.35;;;;;;;9.21;100.00;100119.47;5089149;28;20032;-68
2024/03/03 01:18:38;;;;;;;2.80;1.52;;;;;;;9.26;100.00;100109.44;5090267;28;20469;-68
2024/03/03 01:21:04;;;;;;;5.00;1.63;;;;;;;9.26;100.00;100107.66;5089552;28;20050;-68
2024/03/03 01:23:29;;;;;;;4.43;1.75;;;;;;;9.24;100.00;100100.97;5090464;28;20046;-68
2024/03/03 01:25:55;;;;;;;5.18;1.65;;;;;;;9.23;100.00;100109.72;5091423;28;20047;-68
2024/03/03 01:28:20;;;;;;;5.20;2.13;;;;;;;9.25;100.00;100097.41;5078743;28;20024;-68
2024/03/03 01:30:45;;;;;;;5.25;2.58;;;;;;;9.23;100.00;100096.75;5072172;28;20028;-68
2024/03/03 01:33:11;;;;;;;3.78;1.88;;;;;;;9.21;100.00;100093.47;5088466;28;20040;-68
2024/03/03 01:35:36;;;;;;;6.32;2.50;;;;;;;9.24;100.00;100096.59;5092154;28;20035;-68
2024/03/03 01:38:02;;;;;;;3.40;1.90;;;;;;;9.26;100.00;100096.44;5088705;28;20023;-68
2024/03/03 01:40:27;;;;;;;6.43;2.58;;;;;;;9.27;100.00;100088.50;5086876;28;20629;-68
2024/03/03 01:42:57;;;;;;;9.85;1.88;;;;;;;9.27;100.00;100087.69;5090028;28;20047;-68
2024/03/03 01:45:24;;;;;;;7.30;3.22;;;;;;;9.28;100.00;100090.16;5089230;28;20030;-68
2024/03/03 01:47:55;;;;;;;8.30;3.28;;;;;;;9.28;100.00;100078.94;5087063;28;20401;-68
2024/03/03 01:50:23;;;;;;;8.75;2.90;;;;;;;9.28;100.00;100078.94;5085923;28;20038;-68
2024/03/03 01:52:50;;;;;;;6.57;3.83;;;;;;;9.30;100.00;100085.63;5087728;28;20059;-68
2024/03/03 01:55:21;;;;;;;4.30;3.75;;;;;;;9.33;100.00;100084.50;5092128;28;20031;-68
2024/03/03 01:58:00;;;;;;;9.77;3.30;;;;;;;9.37;100.00;100088.47;5089179;28;20036;-68
2024/03/03 02:00:26;;;;;;;5.70;3.47;;;;;;;9.38;100.00;100084.91;5088039;28;20035;-68
2024/03/03 02:02:51;;;;;;;4.43;3.33;;;;;;;9.39;100.00;100080.50;5082531;28;20032;-67
2024/03/03 02:05:18;;;;;;;5.90;3.67;;;;;;;9.40;100.00;100082.16;5088106;28;20032;-68
2024/03/03 02:07:44;;;;;;;5.85;3.10;;;;;;;9.39;100.00;100081.34;5089488;28;20104;-68
2024/03/03 02:10:09;;;;;;;5.22;3.42;;;;;;;9.39;100.00;100091.72;5088369;28;20039;-68
2024/03/03 02:12:35;;;;;;;10.50;3.40;;;;;;;9.38;100.00;100090.09;5089962;28;20040;-68
2024/03/03 02:15:01;;;;;;;6.47;3.60;;;;;;;9.36;100.00;100081.63;5089209;28;20079;-67
2024/03/03 02:17:26;;;;;;;3.22;1.90;;;;;;;9.34;100.00;100085.34;5090653;28;20086;-68
2024/03/03 02:19:52;;;;;;;8.63;2.85;;;;;;;9.34;100.00;100086.16;5089935;28;20080;-67
2024/03/03 02:22:17;;;;;;;3.10;1.45;;;;;;;9.33;100.00;100081.91;5087121;28;20020;-68
2024/03/03 02:24:42;;;;;;;5.45;1.83;;;;;;;9.29;100.00;100077.97;5090080;28;20036;-68
2024/03/03 02:27:09;;;;;;;3.20;1.65;;;;;;;9.27;100.00;100072.91;5069164;28;20046;-68
2024/03/03 02:29:35;;;;;;;5.22;1.80;;;;;;;9.25;100.00;100071.41;5084602;28;20120;-68
2024/03/03 02:32:01;;;;;;;4.38;1.75;;;;;;;9.23;100.00;100068.16;5087172;28;20032;-68
2024/03/03 02:34:28;;;;;;;5.57;1.92;;;;;;;9.25;100.00;100076.63;5088466;28;20107;-67
2024/03/03 02:36:53;;;;;;;2.72;1.48;;;;;;;9.24;100.00;100056.78;5088945;28;20115;-67
2024/03/03 02:39:19;;;;;;;4.45;2.35;;;;;;;9.22;100.00;100063.91;5087808;28;20135;-68
2024/03/03 02:41:44;;;;;;;5.07;1.77;;;;;;;9.21;100.00;100067.47;5088412;28;20107;-68
2024/03/03 02:44:09;;;;;;;3.38;1.80;;;;;;;9.22;100.00;100066.50;5086032;28;20030;-67
2024/03/03 02:46:35;;;;;;;8.23;2.22;;;;;;;9.23;100.00;100063.75;5087719;28;20027;-68
2024/03/03 02:49:01;;;;;;;2.85;1.95;;;;;;;9.25;100.00;100064.44;5070534;28;20044;-68
2024/03/03 02:51:27;;;;;;;4.40;2.58;;;;;;;9.27;100.00;100072.09;5089477;28;20031;-68
2024/03/03 02:53:53;;;;;;;4.70;1.70;;;;;;;9.28;100.00;100073.72;5088187;28;20019;-67
2024/03/03 02:56:18;;;;;;;3.25;1.75;;;;;;;9.31;100.00;100070.84;5090251;28;20089;-68
2024/03/03 02:58:44;;;;;;;5.18;1.90;;;;;;;9.32;100.00;100068.09;5088115;28;20032;-68
2024/03/03 03:01:09;;;;;;;3.55;1.73;;;;;;;9.31;100.00;100066.47;5092302;28;20462;-67
2024/03/03 03:03:35;;;;;;;6.32;2.42;;;;;;;9.32;100.00;100067.28;5093027;28;20027;-67
2024/03/03 03:06:00;;;;;;;10.23;2.55;;;;;;;9.33;100.00;100066.31;5091063;28;20535;-68
2024/03/03 03:08:25;;;;;;;4.45;2.40;;;;;;;9.32;100.00;100065.50;5093587;28;20126;-67
2024/03/03 03:10:51;;;;;;;4.22;2.10;;;;;;;9.29;100.00;100064.97;5092362;28;20024;-68
2024/03/03 03:13:16;;;;;;;2.47;1.40;;;;;;;9.26;100.00;100065.25;5091569;28;20089;-68
2024/03/03 03:15:42;;;;;;;3.28;1.80;;;;;;;9.22;100.00;100061.31;5093156;28;20024;-68
2024/03/03 03:18:07;;;;;;;5.15;1.85;;;;;;;9.18;100.00;100062.56;5091858;28;20153;-67
2024/03/03 03:20:34;;;;;;;6.50;2.28;;;;;;;9.15;100.00;100068.88;5092969;28;20039;-68
2024/03/03 03:22:59;;;;;;;2.92;1.35;;;;;;;9.12;100.00;100063.13;5091810;28;20388;-67
2024/03/03 03:25:24;;;;;;;3.05;1.52;;;;;;;9.09;100.00;100066.03;5087719;28;20172;-68
2024/03/03 03:27:50;;;;;;;4.63;1.55;;;;;;;9.06;100.00;100069.72;5094659;28;20064;-67
2024/03/03 03:30:15;;;;;;;2.85;1.70;;;;;;;9.05;100.00;100068.09;5094343;28;20020;-67
2024/03/03 03:32:41;;;;;;;3.00;1.70;;;;;;;9.04;100.00;100076.03;5091997;28;20044;-68
2024/03/03 03:35:08;;;;;;;3.38;1.85;;;;;;;9.01;100.00;100073.72;5072697;28;20137;-67
2024/03/03 03:37:33;;;;;;;3.47;1.55;;;;;;;9.02;100.00;100077.94;5095278;28;20028;-67
2024/03/03 03:39:59;;;;;;;5.88;1.77;;;;;;;9.04;100.00;100076.03;5096211;28;20032;-68
2024/03/03 03:42:24;;;;;;;7.15;2.10;;;;;;;9.08;100.00;100072.19;5090724;28;20032;-68
2024/03/03 03:44:49;;;;;;;6.43;1.48;;;;;;;9.11;100.00;100071.91;5092489;28;20031;-67
2024/03/03 03:47:15;;;;;;;10.65;1.98;;;;;;;9.14;100.00;100071.59;5090836;28;20534;-67
2024/03/03 03:49:40;;;;;;;3.83;1.75;;;;;;;9.18;100.00;100083.34;5090985;28;20486;-68
2024/03/03 03:52:06;;;;;;;5.82;1.40;;;;;;;9.20;100.00;100073.63;5090558;28;20029;-68
2024/03/03 03:54:31;;;;;;;2.08;0.80;;;;;;;9.17;100.00;100074.75;5093310;28;20058;-68
2024/03/03 03:57:00;;;;;;;2.00;1.00;;;;;;;9.18;100.00;100067.75;5089831;28;20032;-67
2024/03/03 03:59:25;;;;;;;2.42;1.05;;;;;;;9.22;100.00;100074.31;5097979;28;20841;-68
2024/03/03 04:01:52;;;;;;;2.38;1.30;;;;;;;9.21;100.00;100072.66;5093205;28;20036;-68
2024/03/03 04:04:18;;;;;;;5.15;1.90;;;;;;;9.22;100.00;100064.72;5089581;28;20020;-68
2024/03/03 04:06:43;;;;;;;3.33;1.50;;;;;;;9.21;100.00;100064.88;5073356;28;20105;-68
2024/03/03 04:09:08;;;;;;;2.45;1.10;;;;;;;9.21;100.00;100068.28;5091364;28;20042;-67
2024/03/03 04:11:34;;;;;;;6.25;1.33;;;;;;;9.22;100.00;100071.72;5093508;28;20115;-68
2024/03/03 04:14:00;;;;;;;3.10;1.30;;;;;;;9.23;100.00;100068.16;5092747;28;20063;-67
2024/03/03 04:16:25;;;;;;;3.85;1.52;;;;;;;9.24;100.00;100072.38;5092371;28;20024;-67
2024/03/03 04:18:51;;;;;;;2.63;1.42;;;;;;;9.25;100.00;100068.81;5093364;28;20118;-68
2024/03/03 04:21:16;;;;;;;4.53;1.23;;;;;;;9.24;100.00;100069.78;5090108;28;20056;-68
2024/03/03 04:23:42;;;;;;;2.72;1.33;;;;;;;9.24;100.00;100082.78;5094782;28;20046;-67
2024/03/03 04:26:09;;;;;;;6.15;1.63;;;;;;;9.25;100.00;100084.41;5089694;28;20053;-67
2024/03/03 04:28:34;;;;;;;4.43;1.13;;;;;;;9.26;100.00;100076.47;5090909;28;20028;-67
2024/03/03 04:31:06;;;;;;;2.60;1.30;;;;;;;9.25;100.00;100081.81;5090577;28;20038;-67
2024/03/03 04:33:35;;;;;;;3.53;1.20;;;;;;;9.23;100.00;100078.53;5090958;28;20438;-67
2024/03/03 04:36:01;;;;;;;3.00;1.45;;;;;;;9.21;100.00;100076.09;5095383;28;20802;-67
2024/03/03 04:38:27;;;;;;;1.38;0.68;;;;;;;9.20;100.00;100073.63;5094546;28;20039;-67
2024/03/03 04:40:52;;;;;;;2.90;1.08;;;;;;;9.18;100.00;100072.97;5090263;28;20514;-67
2024/03/03 04:43:18;;;;;;;5.57;2.28;;;;;;;9.17;100.00;100077.34;5091115;28;20114;-68
2024/03/03 04:45:43;;;;;;;2.88;1.33;;;;;;;9.18;100.00;100072.97;5089659;28;20044;-67
2024/03/03 04:48:09;;;;;;;1.90;1.25;;;;;;;9.14;100.00;100077.63;5070195;28;20083;-68
2024/03/03 04:50:35;;;;;;;7.40;1.40;;;;;;;9.11;100.00;100082.28;5091946;28;20035;-68
2024/03/03 04:53:01;;;;;;;1.75;0.80;;;;;;;9.10;100.00;100070.25;5091780;28;20047;-68
2024/03/03 04:55:27;;;;;;;1.95;0.93;;;;;;;9.12;100.00;100068.34;5089524;28;20035;-68
2024/03/03 04:57:52;;;;;;;2.15;1.10;;;;;;;9.13;100.00;100075.16;5089368;28;20096;-68
2024/03/03 05:00:18;;;;;;;2.33;1.23;;;;;;;9.13;100.00;100070.78;5090358;28;20111;-68
2024/03/03 05:02:43;;;;;;;5.03;1.52;;;;;;;9.11;100.00;100064.91;5077493;28;20112;-68
2024/03/03 05:05:09;;;;;;;5.75;1.58;;;;;;;9.09;100.00;100073.81;5090342;28;20047;-68
2024/03/03 05:07:35;;;;;;;3.00;1.30;;;;;;;9.10;100.00;100083.25;5091349;28;20028;-68
2024/03/03 05:10:01;;;;;;;2.78;0.90;;;;;;;9.10;100.00;100081.47;5071378;28;20036;-68
2024/03/03 05:12:26;;;;;;;5.80;1.42;;;;;;;9.13;100.00;100083.78;5090212;28;20155;-68
2024/03/03 05:14:52;;;;;;;2.75;1.27;;;;;;;9.13;100.00;100086.38;5090720;28;20035;-67
2024/03/03 05:17:17;;;;;;;2.83;1.35;;;;;;;9.15;100.00;100089.66;5089070;28;20138;-68
2024/03/03 05:19:43;;;;;;;2.75;0.90;;;;;;;9.16;100.00;100098.28;5091102;28;20035;-68
2024/03/03 05:22:09;;;;;;;7.38;1.67;;;;;;;9.19;100.00;100091.00;5088297;28;20040;-67
2024/03/03 05:24:34;;;;;;;4.40;1.00;;;;;;;9.22;100.00;100095.09;5081966;28;20115;-68
2024/03/03 05:27:00;;;;;;;3.33;1.10;;;;;;;9.21;100.00;100096.88;5093723;28;20035;-67
2024/03/03 05:29:26;;;;;;;1.92;1.05;;;;;;;9.23;100.00;100097.56;5089979;28;20143;-67
2024/03/03 05:31:52;;;;;;;2.65;0.88;;;;;;;9.23;100.00;100097.56;5084355;28;20039;-68
2024/03/03 05:34:18;;;;;;;3.55;1.23;;;;;;;9.19;100.00;100098.00;5086895;28;20475;-67
2024/03/03 05:36:45;;;;;;;2.05;0.80;;;;;;;9.21;100.00;100104.69;5090814;28;20101;-67
2024/03/03 05:39:12;;;;;;;3.58;1.10;;;;;;;9.24;100.00;100094.00;5094213;28;20470;-68
2024/03/03 05:41:41;;;;;;;7.03;1.60;;;;;;;9.21;100.00;100102.09;5084614;28;20073;-68
2024/03/03 05:44:07;;;;;;;3.17;1.10;;;;;;;9.23;100.00;100102.75;5086627;28;20032;-67
2024/03/03 05:46:34;;;;;;;2.35;0.98;;;;;;;9.24;100.00;100108.78;5090242;28;20042;-68
2024/03/03 05:48:59;;;;;;;1.70;1.00;;;;;;;9.23;100.00;100107.13;5087692;28;20032;-67
2024/03/03 05:51:25;;;;;;;3.03;1.15;;;;;;;9.24;100.00;100104.38;5090286;28;20027;-67
2024/03/03 05:53:50;;;;;;;3.95;0.98;;;;;;;9.24;100.00;100112.19;5090148;28;20040;-68
2024/03/03 05:56:16;;;;;;;4.35;1.60;;;;;;;9.21;100.00;100117.69;5071617;28;20119;-68
2024/03/03 05:58:44;;;;;;;2.65;1.05;;;;;;;9.26;100.00;100106.84;5069836;28;20110;-68
2024/03/03 06:01:13;;;;;;;2.38;1.00;;;;;;;9.29;100.00;100114.38;5095786;28;20030;-67
2024/03/03 06:03:39;;;;;;;2.88;1.73;;;;;;;9.28;100.00;100110.13;5085704;28;20021;-67
2024/03/03 06:06:05;;;;;;;5.00;1.80;;;;;;;9.27;100.00;100109.31;5088245;28;20024;-68
2024/03/03 06:08:31;;;;;;;2.75;1.33;;;;;;;9.29;100.00;100101.38;5089442;28;20031;-68
2024/03/03 06:10:57;;;;;;;3.22;1.60;;;;;;;9.31;100.00;100107.25;5094489;28;20028;-67
2024/03/03 06:13:22;;;;;;;3.65;1.85;;;;;;;9.34;100.00;100106.13;5085987;28;20047;-67
2024/03/03 06:15:48;;;;;;;3.25;1.75;;;;;;;9.37;100.00;100113.63;5093416;28;20464;-68
2024/03/03 06:18:14;;;;;;;3.75;1.67;;;;;;;9.38;100.00;100118.69;5088936;28;20034;-67
2024/03/03 06:20:39;;;;;;;3.45;1.27;;;;;;;9.43;100.00;100118.25;5093691;28;20049;-67
2024/03/03 06:23:05;;;;;;;4.53;1.45;;;;;;;9.47;100.00;100119.59;5084889;28;20116;-67
2024/03/03 06:25:31;;;;;;;3.25;1.25;;;;;;;9.50;100.00;100120.13;5087336;28;20036;-67
2024/03/03 06:27:57;;;;;;;2.95;1.60;;;;;;;9.56;100.00;100109.13;5090567;28;20044;-67
2024/03/03 06:30:22;;;;;;;7.60;1.70;;;;;;;9.51;100.00;100123.53;5089996;28;20366;-68
2024/03/03 06:32:48;;;;;;;3.58;2.20;;;;;;;9.50;100.00;100124.50;5088628;28;20036;-68
2024/03/03 06:35:13;;;;;;;6.35;3.25;;;;;;;9.44;100.00;100112.91;5088291;28;20032;-68
2024/03/03 06:37:39;;;;;;;4.18;2.72;;;;;;;9.46;100.00;100123.16;5093115;28;20066;-68
2024/03/03 06:40:09;;;;;;;4.45;2.67;;;;;;;9.45;100.00;100117.13;5088919;28;20130;-67
2024/03/03 06:42:40;;;;;;;7.15;2.40;;;;;;;9.47;100.00;100115.19;5090158;28;20081;-68
2024/03/03 06:45:07;;;;;;;5.13;2.55;;;;;;;9.53;100.00;100119.00;5091252;28;20059;-67
2024/03/03 06:47:33;;;;;;;5.05;2.05;;;;;;;9.57;100.00;100121.16;5088145;28;20035;-67
2024/03/03 06:49:59;;;;;;;2.70;1.40;;;;;;;9.60;100.00;100123.47;5088116;28;20044;-67
2024/03/03 06:52:30;;;;;;;2.35;1.55;;;;;;;9.55;100.00;100114.47;5092877;28;20039;-67
2024/03/03 06:54:56;;;;;;;9.32;2.08;;;;;;;9.63;100.00;100115.38;5092304;28;20077;-67
2024/03/03 06:57:21;;;;;;;4.32;2.03;;;;;;;9.74;100.00;100123.94;5087312;28;20056;-67
2024/03/03 06:59:47;;;;;;;4.07;2.55;;;;;;;9.87;100.00;100114.00;5088917;28;20035;-68
2024/03/03 07:02:12;;;;;;;5.13;2.22;;;;;;;9.99;100.00;100116.22;5088041;28;20031;-68
2024/03/03 07:04:38;;;;;;;4.78;2.20;;;;;;;10.06;100.00;100116.44;5089687;28;20039;-68
2024/03/03 07:07:04;;;;;;;3.20;2.08;;;;;;;10.10;100.00;100111.75;5088629;28;20062;-68
2024/03/03 07:09:29;;;;;;;5.97;1.73;;;;;;;10.25;100.00;100113.72;5089140;28;20477;-67
2024/03/03 07:11:56;;;;;;;2.97;1.30;;;;;;;10.17;100.00;100111.00;5089495;28;20082;-67
2024/03/03 07:14:23;;;;;;;5.30;1.33;;;;;;;9.99;100.00;100116.22;5088546;28;20114;-67
2024/03/03 07:16:49;;;;;;;6.53;1.35;;;;;;;10.01;100.00;100113.47;5064518;28;20060;-68
2024/03/03 07:19:15;;;;;;;6.00;1.63;;;;;;;10.10;100.00;100109.97;5087056;28;20060;-68
2024/03/03 07:21:40;;;;;;;7.43;1.75;;;;;;;10.18;100.00;100117.84;5089695;28;20079;-67
2024/03/03 07:24:06;;;;;;;3.05;1.60;;;;;;;10.19;100.00;100116.91;5088031;28;20043;-68
2024/03/03 07:26:32;;;;;;;4.38;2.00;;;;;;;10.27;100.00;100116.97;5089739;28;20534;-68
2024/03/03 07:28:57;;;;;;;3.00;2.00;;;;;;;10.37;100.00;100111.69;5089362;28;20206;-67
2024/03/03 07:31:23;;;;;;;9.60;2.50;;;;;;;10.40;100.00;100111.34;5085926;28;20043;-68
2024/03/03 07:33:49;;;;;;;8.45;2.72;;;;;;;10.34;100.00;100112.00;5086032;28;20032;-67
2024/03/03 07:36:14;;;;;;;14.77;3.67;;;;;;;10.30;100.00;100110.66;5068923;28;20044;-67
2024/03/03 07:38:40;;;;;;;10.68;3.53;;;;;;;10.30;100.00;100108.88;5088590;28;20038;-68
2024/03/03 07:41:05;;;;;;;17.05;4.03;;;;;;;10.28;100.00;100116.00;5089033;28;20028;-68
2024/03/03 07:43:31;;;;;;;8.88;3.60;;;;;;;10.33;100.00;100112.97;5086596;28;20034;-67
2024/03/03 07:45:57;;;;;;;12.93;3.42;;;;;;;10.29;100.00;100112.44;5091277;28;20040;-68
2024/03/03 07:48:22;;;;;;;7.60;3.25;;;;;;;10.37;100.00;100114.28;5088909;28;20028;-67
2024/03/03 07:50:48;;;;;;;7.43;3.20;;;;;;;10.44;100.00;100114.47;5092187;28;20076;-67
2024/03/03 07:53:13;;;;;;;6.70;1.95;;;;;;;10.38;100.00;100109.91;5090763;28;20024;-67
2024/03/03 07:55:39;;;;;;;5.78;1.70;;;;;;;10.34;100.00;100104.19;5092014;28;20043;-68
2024/03/03 07:58:04;;;;;;;6.35;2.17;;;;;;;10.51;100.00;100113.72;5089501;28;20052;-67
2024/03/03 08:00:35;;;;;;;3.58;1.42;;;;;;;10.71;100.00;100116.94;5090427;28;20106;-68
2024/03/03 08:03:02;;;;;;;3.15;1.23;;;;;;;10.69;100.00;100111.06;5090662;28;20562;-67
2024/03/03 08:05:28;;;;;;;4.35;1.10;;;;;;;10.65;100.00;100114.97;5090698;28;20032;-68
2024/03/03 08:07:54;;;;;;;2.63;0.68;;;;;;;10.64;100.00;100118.53;5092006;28;20036;-67
2024/03/03 08:10:20;;;;;;;1.88;0.73;;;;;;;10.42;100.00;100116.41;5069498;28;20426;-67
2024/03/03 08:12:46;;;;;;;2.20;0.60;;;;;;;10.44;100.00;100117.06;5096249;28;20031;-67
2024/03/03 08:15:12;;;;;;;4.32;0.50;;;;;;;10.43;100.00;100120.66;5094264;28;20039;-67
2024/03/03 08:17:37;;;;;;;3.00;0.52;;;;;;;10.41;100.00;100120.81;5072409;28;20400;-67
2024/03/03 08:20:03;;;;;;;3.45;0.55;;;;;;;10.38;100.00;100112.50;5090846;28;20035;-67
2024/03/03 08:22:29;;;;;;;1.95;0.60;;;;;;;10.38;100.00;100120.31;5099228;28;20024;-67
2024/03/03 08:24:54;;;;;;;1.48;0.30;;;;;;;10.35;100.00;100125.81;5093299;28;20062;-66
2024/03/03 08:27:21;;;;;;;3.05;0.40;;;;;;;10.49;100.00;100118.25;5089342;28;20443;-68
2024/03/03 08:29:46;;;;;;;3.80;0.40;;;;;;;10.45;100.00;100121.31;5087550;28;20060;-68
2024/03/03 08:32:12;;;;;;;1.15;0.30;;;;;;;10.40;100.00;100120.97;5089897;28;20079;-67
2024/03/03 08:34:37;;;;;;;2.38;0.60;;;;;;;10.38;100.00;100113.31;5083511;28;20089;-66
2024/03/03 08:37:03;;;;;;;1.58;0.50;;;;;;;10.38;100.00;100107.28;5092282;28;20052;-67
2024/03/03 08:39:28;;;;;;;4.88;0.38;;;;;;;10.33;100.00;100105.13;5090159;28;20044;-66
2024/03/03 08:41:53;;;;;;;2.45;0.32;;;;;;;10.18;100.00;100110.03;5093341;28;20039;-67
2024/03/03 08:44:19;;;;;;;1.48;0.22;;;;;;;10.32;100.00;100108.72;5092336;28;20052;-66
2024/03/03 08:46:46;;;;;;;3.33;0.40;;;;;;;10.35;100.00;100111.03;5091427;28;20040;-67
2024/03/03 08:49:12;;;;;;;7.30;0.60;;;;;;;10.41;100.00;100110.38;5087053;28;20063;-67
2024/03/03 08:51:40;;;;;;;3.85;0.40;;;;;;;10.39;100.00;100108.94;5089283;28;20487;-67
2024/03/03 08:54:06;;;;;;;4.72;0.50;;;;;;;10.44;100.00;100109.25;5092493;28;20042;-66
2024/03/03 08:56:31;;;;;;;2.80;0.50;;;;;;;10.66;100.00;100107.97;5090202;28;20040;-66
2024/03/03 08:58:57;;;;;;;1.85;0.50;;;;;;;10.62;100.00;100102.22;5090055;28;20075;-67
2024/03/03 09:01:22;;;;;;;2.95;0.30;;;;;;;10.53;100.00;100108.34;5089466;28;20032;-66
2024/03/03 09:03:48;;;;;;;1.35;0.65;;;;;;;10.54;100.00;100100.38;5073718;28;20024;-65
2024/03/03 09:06:14;;;;;;;2.80;0.30;;;;;;;10.61;100.00;100105.81;5089998;28;20043;-66
2024/03/03 09:08:40;;;;;;;1.00;0.35;;;;;;;10.79;100.00;100111.78;5090695;28;20520;-65
2024/03/03 09:11:39;;;;;;;0.98;0.30;;;;;;;11.02;100.00;100108.63;5128221;27;20452;-66
2024/03/03 09:14:05;;;;;;;0.60;0.20;;;;;;;10.81;100.00;100107.25;5127152;27;20065;-66
2024/03/03 09:16:30;;;;;;;4.22;0.40;;;;;;;10.78;100.00;100111.94;5122992;27;20039;-66
2024/03/03 09:18:56;;;;;;;1.42;0.30;;;;;;;10.92;100.00;100101.72;5124849;27;20179;-69
2024/03/03 09:21:21;;;;;;;5.15;0.43;;;;;;;10.83;100.00;100110.50;5125014;27;20026;-65
2024/03/03 09:23:47;;;;;;;3.30;0.30;;;;;;;10.96;100.00;100110.88;5126807;27;20043;-65
2024/03/03 09:26:13;;;;;;;2.15;0.30;;;;;;;11.24;100.00;100114.13;5125907;27;20032;-66
2024/03/03 09:28:40;;;;;;;4.97;0.57;;;;;;;11.52;100.00;100112.06;5122080;27;20034;-68
2024/03/03 09:31:06;;;;;;;0.80;0.20;;;;;;;11.54;100.00;100115.34;5125978;27;20084;-67
2024/03/03 09:33:31;;;;;;;2.33;0.20;;;;;;;11.35;100.00;100115.59;5125858;27;20046;-69
2024/03/03 09:35:57;;;;;;;2.88;0.65;;;;;;;11.47;100.00;100114.34;5123204;27;20043;-68
2024/03/03 09:38:22;;;;;;;4.65;0.32;;;;;;;11.71;100.00;100113.59;5125263;27;20070;-69
2024/03/03 09:40:48;;;;;;;1.92;0.20;;;;;;;11.93;100.00;100120.00;5108895;27;20045;-69
2024/03/03 09:43:18;;;;;;;1.73;0.20;;;;;;;12.01;100.00;100129.66;5123019;27;20118;-68
2024/03/03 09:45:50;;;;;;;0.85;0.20;;;;;;;12.14;100.00;100116.94;5123821;27;20051;-68
2024/03/03 09:48:15;;;;;;;1.23;0.17;;;;;;;12.07;100.00;100121.16;5137548;27;20474;-64
2024/03/03 09:50:42;;;;;;;2.60;0.30;;;;;;;12.26;100.00;100120.84;5143210;27;20042;-69
2024/03/03 09:53:08;;;;;;;3.72;0.20;;;;;;;12.27;100.00;100125.91;5144333;27;20481;-69
2024/03/03 09:55:37;;;;;;;3.90;0.20;;;;;;;12.43;100.00;100116.41;5145505;27;20030;-69
2024/03/03 09:58:03;;;;;;;1.25;0.13;;;;;;;12.42;100.00;100120.00;5145943;27;20027;-68
2024/03/03 10:00:34;;;;;;;0.60;0.17;;;;;;;12.37;100.00;100122.28;5146048;27;20031;-68
2024/03/03 10:03:00;;;;;;;4.15;0.20;;;;;;;12.39;100.00;100115.94;5144470;27;20024;-68
2024/03/03 10:05:28;;;;;;;2.72;0.20;;;;;;;12.38;100.00;100116.09;5143625;27;20310;-68
2024/03/03 10:08:02;;;;;;;3.42;0.55;;;;;;;12.19;100.00;100120.69;5142574;27;20041;-69
2024/03/03 10:10:31;;;;;;;2.10;0.20;;;;;;;12.15;100.00;100119.38;5145202;27;20043;-69
2024/03/03 10:13:00;;;;;;;4.13;0.20;;;;;;;12.06;100.00;100109.09;5143720;27;20039;-69
2024/03/03 10:15:27;;;;;;;1.95;0.10;;;;;;;12.06;100.00;100109.91;5144395;27;20034;-69
2024/03/03 10:17:53;;;;;;;2.50;0.30;;;;;;;12.06;100.00;100116.94;5126487;27;20031;-69
2024/03/03 10:20:18;;;;;;;1.30;0.32;;;;;;;12.13;100.00;100115.31;5144103;27;20420;-68
2024/03/03 10:22:44;;;;;;;2.75;0.20;;;;;;;11.98;100.00;100117.72;5131486;27;20041;-68
2024/03/03 10:25:11;;;;;;;2.80;0.20;;;;;;;12.06;100.00;100119.53;5130384;27;20594;-69
2024/03/03 10:27:39;;;;;;;2.55;0.10;;;;;;;12.18;100.00;100113.03;5126363;27;20489;-68
2024/03/03 10:30:07;;;;;;;2.05;0.15;;;;;;;12.23;100.00;100113.34;5131647;27;20110;-68
2024/03/03 10:32:34;;;;;;;1.77;0.30;;;;;;;12.25;100.00;100114.81;5109616;27;20034;-69
2024/03/03 10:35:03;;;;;;;5.15;0.17;;;;;;;12.42;100.00;100112.16;5125507;27;20027;-69
2024/03/03 10:37:30;;;;;;;1.27;0.20;;;;;;;12.34;100.00;100106.94;5125765;27;20096;-69
2024/03/03 10:39:55;;;;;;;3.35;0.28;;;;;;;12.49;100.00;100100.91;5125131;27;20445;-69
2024/03/03 10:42:22;;;;;;;4.82;0.10;;;;;;;12.45;100.00;100098.78;5120135;27;20110;-69
2024/03/03 10:44:47;;;;;;;5.05;0.13;;;;;;;12.62;100.00;100103.00;5129062;27;20042;-69
2024/03/03 10:47:16;;;;;;;7.03;0.30;;;;;;;12.84;100.00;100098.84;5129347;27;20035;-69
2024/03/03 10:49:42;;;;;;;2.22;0.30;;;;;;;12.90;100.00;100099.00;5128028;27;20031;-69
2024/03/03 10:52:09;;;;;;;2.10;0.20;;;;;;;12.93;100.00;100092.63;5132297;27;20031;-68
2024/03/03 10:54:35;;;;;;;2.97;0.13;;;;;;;12.90;100.00;100085.94;5133426;27;20042;-68
2024/03/03 10:57:01;;;;;;;3.45;0.13;;;;;;;12.97;100.00;100099.16;5132150;27;20027;-69
2024/03/03 10:59:31;;;;;;;4.45;0.20;;;;;;;12.94;100.00;100087.22;5133059;27;20038;-69
2024/03/03 11:01:58;;;;;;;4.45;0.10;;;;;;;12.99;100.00;100085.91;5132830;27;20371;-69
2024/03/03 11:04:30;;;;;;;1.10;0.10;;;;;;;12.80;100.00;100082.69;5132318;27;20035;-69
2024/03/03 11:07:05;;;;;;;0.85;0.10;;;;;;;12.74;100.00;100083.38;5133115;27;20031;-69
2024/03/03 11:09:30;;;;;;;3.55;0.20;;;;;;;12.78;100.00;100084.66;5125496;27;20491;-69
2024/03/03 11:12:03;;;;;;;4.05;0.17;;;;;;;12.91;100.00;100077.09;5132983;27;20070;-69
2024/03/03 11:14:44;;;;;;;4.30;0.13;;;;;;;12.80;100.00;100072.22;5125463;27;20553;-69
2024/03/03 11:17:14;;;;;;;1.85;0.10;;;;;;;12.98;100.00;100065.97;5113407;27;20103;-70